sensor_id;sensor_type;location;lat;lon;timestamp;P1;durP1;ratioP1;P2;durP2;ratioP2
52708;SDS011;38606;52.986;6.980;2022-10-24T00:01:46;4.05;;;1.92;;
52708;SDS011;38606;52.986;6.980;2022-10-24T00:04:12;5.05;;;2.10;;
52708;SDS011;38606;52.986;6.980;2022-10-24T00:06:39;3.60;;;1.73;;
52708;SDS011;38606;52.986;6.980;2022-10-24T00:09:05;5.63;;;1.90;;
52708;SDS011;38606;52.986;6.980;2022-10-24T00:11:31;10.23;;;2.25;;
52708;SDS011;38606;52.986;6.980;2022-10-24T00:13:58;6.93;;;2.10;;
52708;SDS011;38606;52.986;6.980;2022-10-24T00:16:24;6.47;;;2.20;;
52708;SDS011;38606;52.986;6.980;2022-10-24T00:18:51;8.30;;;2.15;;
52708;SDS011;38606;52.986;6.980;2022-10-24T00:21:16;4.03;;;2.15;;
52708;SDS011;38606;52.986;6.980;2022-10-24T00:23:42;6.72;;;2.08;;
52708;SDS011;38606;52.986;6.980;2022-10-24T00:26:09;7.22;;;1.90;;
52708;SDS011;38606;52.986;6.980;2022-10-24T00:28:35;9.35;;;2.10;;
52708;SDS011;38606;52.986;6.980;2022-10-24T00:31:02;5.22;;;1.80;;
52708;SDS011;38606;52.986;6.980;2022-10-24T00:33:30;13.15;;;2.08;;
52708;SDS011;38606;52.986;6.980;2022-10-24T00:35:56;6.22;;;2.50;;
52708;SDS011;38606;52.986;6.980;2022-10-24T00:38:21;5.15;;;1.90;;
52708;SDS011;38606;52.986;6.980;2022-10-24T00:40:47;11.25;;;2.47;;
52708;SDS011;38606;52.986;6.980;2022-10-24T00:43:14;5.85;;;1.90;;
52708;SDS011;38606;52.986;6.980;2022-10-24T00:48:11;5.70;;;1.77;;
52708;SDS011;38606;52.986;6.980;2022-10-24T00:51:32;3.53;;;1.70;;
52708;SDS011;38606;52.986;6.980;2022-10-24T00:53:54;8.82;;;1.98;;
52708;SDS011;38606;52.986;6.980;2022-10-24T00:56:24;4.40;;;1.40;;
52708;SDS011;38606;52.986;6.980;2022-10-24T00:58:55;4.75;;;1.50;;
52708;SDS011;38606;52.986;6.980;2022-10-24T01:01:23;6.60;;;1.63;;
52708;SDS011;38606;52.986;6.980;2022-10-24T01:03:49;6.53;;;1.73;;
52708;SDS011;38606;52.986;6.980;2022-10-24T01:06:22;4.32;;;1.40;;
52708;SDS011;38606;52.986;6.980;2022-10-24T01:20:17;9.82;;;1.83;;
52708;SDS011;38606;52.986;6.980;2022-10-24T01:25:45;6.22;;;1.75;;
52708;SDS011;38606;52.986;6.980;2022-10-24T01:28:39;4.97;;;1.75;;
52708;SDS011;38606;52.986;6.980;2022-10-24T01:31:14;3.50;;;1.50;;
52708;SDS011;38606;52.986;6.980;2022-10-24T01:33:52;5.28;;;1.95;;
52708;SDS011;38606;52.986;6.980;2022-10-24T01:36:32;8.48;;;2.17;;
52708;SDS011;38606;52.986;6.980;2022-10-24T01:39:05;7.45;;;2.63;;
52708;SDS011;38606;52.986;6.980;2022-10-24T01:41:37;7.72;;;2.08;;
52708;SDS011;38606;52.986;6.980;2022-10-24T01:44:06;7.75;;;2.13;;
52708;SDS011;38606;52.986;6.980;2022-10-24T01:46:44;6.13;;;1.90;;
52708;SDS011;38606;52.986;6.980;2022-10-24T01:49:20;7.38;;;2.13;;
52708;SDS011;38606;52.986;6.980;2022-10-24T01:51:51;7.28;;;2.10;;
52708;SDS011;38606;52.986;6.980;2022-10-24T01:54:20;7.30;;;2.17;;
52708;SDS011;38606;52.986;6.980;2022-10-24T01:56:46;5.53;;;2.22;;
52708;SDS011;38606;52.986;6.980;2022-10-24T02:01:50;7.25;;;2.38;;
52708;SDS011;38606;52.986;6.980;2022-10-24T02:04:18;7.95;;;2.60;;
52708;SDS011;38606;52.986;6.980;2022-10-24T02:06:46;8.05;;;2.72;;
52708;SDS011;38606;52.986;6.980;2022-10-24T02:09:14;6.82;;;2.35;;
52708;SDS011;38606;52.986;6.980;2022-10-24T02:11:42;5.03;;;2.40;;
52708;SDS011;38606;52.986;6.980;2022-10-24T02:14:18;8.32;;;2.53;;
52708;SDS011;38606;52.986;6.980;2022-10-24T02:16:49;13.85;;;2.70;;
52708;SDS011;38606;52.986;6.980;2022-10-24T02:19:15;9.85;;;3.15;;
52708;SDS011;38606;52.986;6.980;2022-10-24T02:26:38;8.52;;;2.88;;
52708;SDS011;38606;52.986;6.980;2022-10-24T02:29:16;6.43;;;2.50;;
52708;SDS011;38606;52.986;6.980;2022-10-24T02:31:49;6.70;;;2.92;;
52708;SDS011;38606;52.986;6.980;2022-10-24T02:34:19;11.85;;;3.45;;
52708;SDS011;38606;52.986;6.980;2022-10-24T02:36:48;12.70;;;3.35;;
52708;SDS011;38606;52.986;6.980;2022-10-24T02:39:17;10.55;;;3.15;;
52708;SDS011;38606;52.986;6.980;2022-10-24T02:41:44;10.18;;;2.92;;
52708;SDS011;38606;52.986;6.980;2022-10-24T02:44:11;8.35;;;2.88;;
52708;SDS011;38606;52.986;6.980;2022-10-24T02:46:39;7.40;;;2.33;;
52708;SDS011;38606;52.986;6.980;2022-10-24T02:49:06;7.97;;;2.78;;
52708;SDS011;38606;52.986;6.980;2022-10-24T02:51:33;8.55;;;2.90;;
52708;SDS011;38606;52.986;6.980;2022-10-24T02:54:02;8.75;;;2.67;;
52708;SDS011;38606;52.986;6.980;2022-10-24T02:56:29;9.68;;;2.67;;
52708;SDS011;38606;52.986;6.980;2022-10-24T02:58:55;10.55;;;2.97;;
52708;SDS011;38606;52.986;6.980;2022-10-24T03:01:21;11.68;;;2.95;;
52708;SDS011;38606;52.986;6.980;2022-10-24T03:03:46;6.38;;;2.38;;
52708;SDS011;38606;52.986;6.980;2022-10-24T03:06:12;8.60;;;2.40;;
52708;SDS011;38606;52.986;6.980;2022-10-24T03:08:38;9.63;;;2.53;;
52708;SDS011;38606;52.986;6.980;2022-10-24T03:11:03;12.10;;;2.60;;
52708;SDS011;38606;52.986;6.980;2022-10-24T03:13:29;9.15;;;2.90;;
52708;SDS011;38606;52.986;6.980;2022-10-24T03:15:55;3.72;;;2.65;;
52708;SDS011;38606;52.986;6.980;2022-10-24T03:18:21;7.65;;;2.40;;
52708;SDS011;38606;52.986;6.980;2022-10-24T03:20:47;12.20;;;2.80;;
52708;SDS011;38606;52.986;6.980;2022-10-24T03:23:13;9.15;;;2.33;;
52708;SDS011;38606;52.986;6.980;2022-10-24T03:25:40;8.70;;;2.75;;
52708;SDS011;38606;52.986;6.980;2022-10-24T03:28:06;8.32;;;2.40;;
52708;SDS011;38606;52.986;6.980;2022-10-24T03:30:32;11.13;;;3.10;;
52708;SDS011;38606;52.986;6.980;2022-10-24T03:32:57;7.85;;;2.50;;
52708;SDS011;38606;52.986;6.980;2022-10-24T03:35:23;7.70;;;2.53;;
52708;SDS011;38606;52.986;6.980;2022-10-24T03:37:48;12.10;;;2.90;;
52708;SDS011;38606;52.986;6.980;2022-10-24T03:40:14;8.73;;;2.97;;
52708;SDS011;38606;52.986;6.980;2022-10-24T03:42:40;12.80;;;3.10;;
52708;SDS011;38606;52.986;6.980;2022-10-24T03:45:06;7.10;;;2.58;;
52708;SDS011;38606;52.986;6.980;2022-10-24T03:47:32;6.38;;;2.60;;
52708;SDS011;38606;52.986;6.980;2022-10-24T03:49:57;10.13;;;3.00;;
52708;SDS011;38606;52.986;6.980;2022-10-24T03:52:23;8.48;;;2.90;;
52708;SDS011;38606;52.986;6.980;2022-10-24T03:54:49;5.57;;;2.38;;
52708;SDS011;38606;52.986;6.980;2022-10-24T03:57:15;11.35;;;2.72;;
52708;SDS011;38606;52.986;6.980;2022-10-24T03:59:41;7.85;;;2.95;;
52708;SDS011;38606;52.986;6.980;2022-10-24T04:02:07;7.40;;;2.92;;
52708;SDS011;38606;52.986;6.980;2022-10-24T04:04:32;9.07;;;2.53;;
52708;SDS011;38606;52.986;6.980;2022-10-24T04:06:58;9.45;;;2.67;;
52708;SDS011;38606;52.986;6.980;2022-10-24T04:09:25;8.07;;;2.60;;
52708;SDS011;38606;52.986;6.980;2022-10-24T04:11:51;8.95;;;2.35;;
52708;SDS011;38606;52.986;6.980;2022-10-24T04:14:18;5.65;;;2.40;;
52708;SDS011;38606;52.986;6.980;2022-10-24T04:16:44;6.85;;;2.28;;
52708;SDS011;38606;52.986;6.980;2022-10-24T04:19:10;9.02;;;2.25;;
52708;SDS011;38606;52.986;6.980;2022-10-24T04:21:36;7.90;;;2.10;;
52708;SDS011;38606;52.986;6.980;2022-10-24T04:24:02;4.78;;;2.20;;
52708;SDS011;38606;52.986;6.980;2022-10-24T04:26:28;7.25;;;2.47;;
52708;SDS011;38606;52.986;6.980;2022-10-24T04:28:54;5.85;;;2.25;;
52708;SDS011;38606;52.986;6.980;2022-10-24T04:31:20;6.22;;;1.98;;
52708;SDS011;38606;52.986;6.980;2022-10-24T04:33:46;6.43;;;1.75;;
52708;SDS011;38606;52.986;6.980;2022-10-24T04:36:12;8.80;;;1.83;;
52708;SDS011;38606;52.986;6.980;2022-10-24T04:38:37;9.40;;;2.15;;
52708;SDS011;38606;52.986;6.980;2022-10-24T04:41:03;5.10;;;1.70;;
52708;SDS011;38606;52.986;6.980;2022-10-24T04:43:29;8.07;;;2.40;;
52708;SDS011;38606;52.986;6.980;2022-10-24T04:45:54;7.38;;;1.73;;
52708;SDS011;38606;52.986;6.980;2022-10-24T04:48:20;4.80;;;1.85;;
52708;SDS011;38606;52.986;6.980;2022-10-24T04:50:46;6.72;;;1.60;;
52708;SDS011;38606;52.986;6.980;2022-10-24T04:53:12;7.40;;;1.73;;
52708;SDS011;38606;52.986;6.980;2022-10-24T04:55:38;7.60;;;1.83;;
52708;SDS011;38606;52.986;6.980;2022-10-24T04:58:04;8.88;;;1.80;;
52708;SDS011;38606;52.986;6.980;2022-10-24T05:00:30;6.20;;;1.58;;
52708;SDS011;38606;52.986;6.980;2022-10-24T05:02:55;10.07;;;1.67;;
52708;SDS011;38606;52.986;6.980;2022-10-24T05:05:21;5.95;;;1.63;;
52708;SDS011;38606;52.986;6.980;2022-10-24T05:07:47;4.93;;;1.73;;
52708;SDS011;38606;52.986;6.980;2022-10-24T05:10:13;6.70;;;1.73;;
52708;SDS011;38606;52.986;6.980;2022-10-24T05:12:40;5.85;;;1.77;;
52708;SDS011;38606;52.986;6.980;2022-10-24T05:15:06;6.32;;;1.60;;
52708;SDS011;38606;52.986;6.980;2022-10-24T05:17:32;3.53;;;1.65;;
52708;SDS011;38606;52.986;6.980;2022-10-24T05:19:59;9.85;;;1.77;;
52708;SDS011;38606;52.986;6.980;2022-10-24T05:22:25;8.00;;;1.48;;
52708;SDS011;38606;52.986;6.980;2022-10-24T05:24:51;6.57;;;1.70;;
52708;SDS011;38606;52.986;6.980;2022-10-24T05:27:17;8.23;;;1.90;;
52708;SDS011;38606;52.986;6.980;2022-10-24T05:29:49;7.30;;;1.63;;
52708;SDS011;38606;52.986;6.980;2022-10-24T05:32:15;5.78;;;1.70;;
52708;SDS011;38606;52.986;6.980;2022-10-24T05:34:41;4.13;;;1.52;;
52708;SDS011;38606;52.986;6.980;2022-10-24T05:37:07;5.40;;;1.35;;
52708;SDS011;38606;52.986;6.980;2022-10-24T05:39:33;10.68;;;2.10;;
52708;SDS011;38606;52.986;6.980;2022-10-24T05:41:58;7.75;;;1.60;;
52708;SDS011;38606;52.986;6.980;2022-10-24T05:44:24;4.45;;;1.50;;
52708;SDS011;38606;52.986;6.980;2022-10-24T05:46:50;5.97;;;1.50;;
52708;SDS011;38606;52.986;6.980;2022-10-24T05:49:16;7.55;;;1.50;;
52708;SDS011;38606;52.986;6.980;2022-10-24T05:51:42;6.70;;;1.30;;
52708;SDS011;38606;52.986;6.980;2022-10-24T05:54:08;4.65;;;1.20;;
52708;SDS011;38606;52.986;6.980;2022-10-24T05:56:34;6.60;;;1.63;;
52708;SDS011;38606;52.986;6.980;2022-10-24T05:59:00;7.05;;;1.73;;
52708;SDS011;38606;52.986;6.980;2022-10-24T06:01:27;5.80;;;1.73;;
52708;SDS011;38606;52.986;6.980;2022-10-24T06:03:54;8.88;;;1.48;;
52708;SDS011;38606;52.986;6.980;2022-10-24T06:06:20;8.13;;;1.45;;
52708;SDS011;38606;52.986;6.980;2022-10-24T06:08:47;6.20;;;1.60;;
52708;SDS011;38606;52.986;6.980;2022-10-24T06:11:13;8.82;;;1.42;;
52708;SDS011;38606;52.986;6.980;2022-10-24T06:13:43;7.97;;;1.23;;
52708;SDS011;38606;52.986;6.980;2022-10-24T06:16:09;6.82;;;1.63;;
52708;SDS011;38606;52.986;6.980;2022-10-24T06:18:36;6.90;;;1.40;;
52708;SDS011;38606;52.986;6.980;2022-10-24T06:21:03;8.30;;;1.38;;
52708;SDS011;38606;52.986;6.980;2022-10-24T06:23:31;7.00;;;1.40;;
52708;SDS011;38606;52.986;6.980;2022-10-24T06:25:57;4.68;;;1.27;;
52708;SDS011;38606;52.986;6.980;2022-10-24T06:28:23;6.47;;;1.40;;
52708;SDS011;38606;52.986;6.980;2022-10-24T06:30:50;6.47;;;1.52;;
52708;SDS011;38606;52.986;6.980;2022-10-24T06:33:16;4.30;;;1.60;;
52708;SDS011;38606;52.986;6.980;2022-10-24T06:35:42;7.60;;;1.80;;
52708;SDS011;38606;52.986;6.980;2022-10-24T06:38:08;5.38;;;1.35;;
52708;SDS011;38606;52.986;6.980;2022-10-24T06:40:35;7.40;;;1.55;;
52708;SDS011;38606;52.986;6.980;2022-10-24T06:43:03;4.43;;;1.30;;
52708;SDS011;38606;52.986;6.980;2022-10-24T06:45:29;7.43;;;1.67;;
52708;SDS011;38606;52.986;6.980;2022-10-24T06:47:55;4.38;;;1.40;;
52708;SDS011;38606;52.986;6.980;2022-10-24T06:50:20;4.15;;;1.42;;
52708;SDS011;38606;52.986;6.980;2022-10-24T06:52:46;8.57;;;2.08;;
52708;SDS011;38606;52.986;6.980;2022-10-24T06:55:12;5.55;;;1.45;;
52708;SDS011;38606;52.986;6.980;2022-10-24T06:57:38;5.30;;;1.40;;
52708;SDS011;38606;52.986;6.980;2022-10-24T07:00:04;6.38;;;1.77;;
52708;SDS011;38606;52.986;6.980;2022-10-24T07:02:31;6.63;;;1.58;;
52708;SDS011;38606;52.986;6.980;2022-10-24T07:04:57;7.55;;;1.50;;
52708;SDS011;38606;52.986;6.980;2022-10-24T07:07:23;6.10;;;1.38;;
52708;SDS011;38606;52.986;6.980;2022-10-24T07:09:52;8.10;;;1.52;;
52708;SDS011;38606;52.986;6.980;2022-10-24T07:12:23;6.45;;;1.52;;
52708;SDS011;38606;52.986;6.980;2022-10-24T07:14:49;4.93;;;1.23;;
52708;SDS011;38606;52.986;6.980;2022-10-24T07:17:15;4.97;;;1.30;;
52708;SDS011;38606;52.986;6.980;2022-10-24T07:19:42;5.97;;;1.50;;
52708;SDS011;38606;52.986;6.980;2022-10-24T07:22:07;6.43;;;1.30;;
52708;SDS011;38606;52.986;6.980;2022-10-24T07:24:34;9.77;;;1.52;;
52708;SDS011;38606;52.986;6.980;2022-10-24T07:27:00;6.65;;;1.30;;
52708;SDS011;38606;52.986;6.980;2022-10-24T07:29:26;5.70;;;1.73;;
52708;SDS011;38606;52.986;6.980;2022-10-24T07:31:51;3.60;;;1.50;;
52708;SDS011;38606;52.986;6.980;2022-10-24T07:34:18;7.38;;;1.40;;
52708;SDS011;38606;52.986;6.980;2022-10-24T07:36:44;5.03;;;1.10;;
52708;SDS011;38606;52.986;6.980;2022-10-24T07:39:10;7.68;;;1.20;;
52708;SDS011;38606;52.986;6.980;2022-10-24T07:41:37;5.32;;;1.20;;
52708;SDS011;38606;52.986;6.980;2022-10-24T07:44:05;8.00;;;2.10;;
52708;SDS011;38606;52.986;6.980;2022-10-24T07:46:31;6.78;;;1.65;;
52708;SDS011;38606;52.986;6.980;2022-10-24T07:48:57;4.35;;;1.30;;
52708;SDS011;38606;52.986;6.980;2022-10-24T07:51:22;7.65;;;1.40;;
52708;SDS011;38606;52.986;6.980;2022-10-24T07:53:52;4.82;;;1.20;;
52708;SDS011;38606;52.986;6.980;2022-10-24T07:56:17;16.02;;;1.65;;
52708;SDS011;38606;52.986;6.980;2022-10-24T07:58:43;8.25;;;1.38;;
52708;SDS011;38606;52.986;6.980;2022-10-24T08:01:12;6.18;;;1.05;;
52708;SDS011;38606;52.986;6.980;2022-10-24T08:03:40;4.38;;;1.23;;
52708;SDS011;38606;52.986;6.980;2022-10-24T08:06:06;8.30;;;1.50;;
52708;SDS011;38606;52.986;6.980;2022-10-24T08:08:34;6.78;;;1.13;;
52708;SDS011;38606;52.986;6.980;2022-10-24T08:11:00;7.15;;;1.25;;
52708;SDS011;38606;52.986;6.980;2022-10-24T08:13:30;9.80;;;1.65;;
52708;SDS011;38606;52.986;6.980;2022-10-24T08:15:55;10.32;;;1.58;;
52708;SDS011;38606;52.986;6.980;2022-10-24T08:18:21;7.30;;;1.38;;
52708;SDS011;38606;52.986;6.980;2022-10-24T08:20:57;6.60;;;1.13;;
52708;SDS011;38606;52.986;6.980;2022-10-24T08:23:24;6.15;;;1.33;;
52708;SDS011;38606;52.986;6.980;2022-10-24T08:25:50;7.07;;;1.73;;
52708;SDS011;38606;52.986;6.980;2022-10-24T08:28:16;6.78;;;1.35;;
52708;SDS011;38606;52.986;6.980;2022-10-24T08:30:42;8.95;;;1.08;;
52708;SDS011;38606;52.986;6.980;2022-10-24T08:33:07;7.95;;;1.30;;
52708;SDS011;38606;52.986;6.980;2022-10-24T08:35:33;7.88;;;1.67;;
52708;SDS011;38606;52.986;6.980;2022-10-24T08:37:59;6.20;;;1.30;;
52708;SDS011;38606;52.986;6.980;2022-10-24T08:40:26;5.43;;;1.23;;
52708;SDS011;38606;52.986;6.980;2022-10-24T08:42:52;7.32;;;1.33;;
52708;SDS011;38606;52.986;6.980;2022-10-24T08:45:22;8.40;;;1.60;;
52708;SDS011;38606;52.986;6.980;2022-10-24T08:47:59;8.07;;;1.40;;
52708;SDS011;38606;52.986;6.980;2022-10-24T08:50:29;6.87;;;1.30;;
52708;SDS011;38606;52.986;6.980;2022-10-24T08:55:38;6.70;;;1.40;;
52708;SDS011;38606;52.986;6.980;2022-10-24T08:58:14;4.80;;;0.98;;
52708;SDS011;38606;52.986;6.980;2022-10-24T09:00:53;14.63;;;3.22;;
52708;SDS011;38606;52.986;6.980;2022-10-24T09:06:00;6.13;;;1.38;;
52708;SDS011;38606;52.986;6.980;2022-10-24T09:11:05;11.18;;;1.70;;
52708;SDS011;38606;52.986;6.980;2022-10-24T09:13:33;7.97;;;1.40;;
52708;SDS011;38606;52.986;6.980;2022-10-24T09:16:02;7.57;;;1.60;;
52708;SDS011;38606;52.986;6.980;2022-10-24T09:18:38;9.38;;;1.40;;
52708;SDS011;38606;52.986;6.980;2022-10-24T09:21:06;9.30;;;1.63;;
52708;SDS011;38606;52.986;6.980;2022-10-24T09:23:34;8.45;;;1.80;;
52708;SDS011;38606;52.986;6.980;2022-10-24T09:26:02;10.05;;;1.80;;
52708;SDS011;38606;52.986;6.980;2022-10-24T09:28:32;12.60;;;1.75;;
52708;SDS011;38606;52.986;6.980;2022-10-24T09:31:03;7.70;;;1.60;;
52708;SDS011;38606;52.986;6.980;2022-10-24T09:33:36;9.82;;;1.33;;
52708;SDS011;38606;52.986;6.980;2022-10-24T09:36:07;9.02;;;1.30;;
52708;SDS011;38606;52.986;6.980;2022-10-24T09:38:36;12.15;;;1.55;;
52708;SDS011;38606;52.986;6.980;2022-10-24T09:46:15;7.10;;;1.50;;
52708;SDS011;38606;52.986;6.980;2022-10-24T09:51:39;8.52;;;1.40;;
52708;SDS011;38606;52.986;6.980;2022-10-24T09:56:46;10.07;;;1.45;;
52708;SDS011;38606;52.986;6.980;2022-10-24T10:02:06;6.70;;;1.23;;
52708;SDS011;38606;52.986;6.980;2022-10-24T10:04:38;6.00;;;1.73;;
52708;SDS011;38606;52.986;6.980;2022-10-24T10:07:19;10.77;;;1.67;;
52708;SDS011;38606;52.986;6.980;2022-10-24T10:09:52;7.78;;;1.45;;
52708;SDS011;38606;52.986;6.980;2022-10-24T10:12:24;10.90;;;1.90;;
52708;SDS011;38606;52.986;6.980;2022-10-24T10:17:55;4.72;;;1.30;;
52708;SDS011;38606;52.986;6.980;2022-10-24T10:20:32;9.05;;;1.42;;
52708;SDS011;38606;52.986;6.980;2022-10-24T10:25:43;6.95;;;1.38;;
52708;SDS011;38606;52.986;6.980;2022-10-24T10:28:20;8.25;;;1.38;;
52708;SDS011;38606;52.986;6.980;2022-10-24T10:30:48;8.75;;;2.55;;
52708;SDS011;38606;52.986;6.980;2022-10-24T10:33:19;8.93;;;1.10;;
52708;SDS011;38606;52.986;6.980;2022-10-24T10:36:04;7.30;;;1.20;;
52708;SDS011;38606;52.986;6.980;2022-10-24T10:41:28;5.90;;;1.65;;
52708;SDS011;38606;52.986;6.980;2022-10-24T10:47:00;7.22;;;1.10;;
52708;SDS011;38606;52.986;6.980;2022-10-24T10:49:36;9.15;;;1.17;;
52708;SDS011;38606;52.986;6.980;2022-10-24T10:57:41;3.28;;;1.15;;
52708;SDS011;38606;52.986;6.980;2022-10-24T11:00:24;5.45;;;1.23;;
52708;SDS011;38606;52.986;6.980;2022-10-24T11:11:33;4.65;;;0.88;;
52708;SDS011;38606;52.986;6.980;2022-10-24T11:14:14;6.15;;;1.02;;
52708;SDS011;38606;52.986;6.980;2022-10-24T11:16:50;3.58;;;0.80;;
52708;SDS011;38606;52.986;6.980;2022-10-24T11:21:59;9.13;;;1.02;;
52708;SDS011;38606;52.986;6.980;2022-10-24T11:24:28;5.53;;;1.00;;
52708;SDS011;38606;52.986;6.980;2022-10-24T11:27:05;5.53;;;1.00;;
52708;SDS011;38606;52.986;6.980;2022-10-24T11:30:02;8.48;;;1.30;;
52708;SDS011;38606;52.986;6.980;2022-10-24T11:32:51;6.60;;;1.33;;
52708;SDS011;38606;52.986;6.980;2022-10-24T11:35:28;5.25;;;1.00;;
52708;SDS011;38606;52.986;6.980;2022-10-24T11:37:55;5.53;;;1.00;;
52708;SDS011;38606;52.986;6.980;2022-10-24T11:40:30;5.80;;;0.95;;
52708;SDS011;38606;52.986;6.980;2022-10-24T11:48:32;5.22;;;0.93;;
52708;SDS011;38606;52.986;6.980;2022-10-24T11:51:11;5.55;;;1.42;;
52708;SDS011;38606;52.986;6.980;2022-10-24T11:56:14;5.45;;;0.93;;
52708;SDS011;38606;52.986;6.980;2022-10-24T11:58:49;5.80;;;0.90;;
52708;SDS011;38606;52.986;6.980;2022-10-24T12:01:27;6.53;;;1.40;;
52708;SDS011;38606;52.986;6.980;2022-10-24T12:07:36;5.93;;;1.10;;
52708;SDS011;38606;52.986;6.980;2022-10-24T12:18:29;6.20;;;0.90;;
52708;SDS011;38606;52.986;6.980;2022-10-24T12:21:09;10.30;;;1.25;;
52708;SDS011;38606;52.986;6.980;2022-10-24T12:23:38;5.53;;;1.00;;
52708;SDS011;38606;52.986;6.980;2022-10-24T12:26:06;3.63;;;0.90;;
52708;SDS011;38606;52.986;6.980;2022-10-24T12:28:38;5.13;;;1.15;;
52708;SDS011;38606;52.986;6.980;2022-10-24T12:31:09;5.28;;;0.75;;
52708;SDS011;38606;52.986;6.980;2022-10-24T12:33:44;3.17;;;0.80;;
52708;SDS011;38606;52.986;6.980;2022-10-24T12:36:12;4.82;;;0.93;;
52708;SDS011;38606;52.986;6.980;2022-10-24T12:41:21;5.72;;;0.70;;
52708;SDS011;38606;52.986;6.980;2022-10-24T12:47:00;5.50;;;1.00;;
52708;SDS011;38606;52.986;6.980;2022-10-24T12:49:47;7.20;;;1.23;;
52708;SDS011;38606;52.986;6.980;2022-10-24T12:54:59;3.25;;;0.70;;
52708;SDS011;38606;52.986;6.980;2022-10-24T12:57:26;6.43;;;1.27;;
52708;SDS011;38606;52.986;6.980;2022-10-24T12:59:57;3.38;;;0.80;;
52708;SDS011;38606;52.986;6.980;2022-10-24T13:02:28;2.55;;;0.70;;
52708;SDS011;38606;52.986;6.980;2022-10-24T13:13:21;3.85;;;0.93;;
52708;SDS011;38606;52.986;6.980;2022-10-24T13:29:58;4.22;;;0.90;;
52708;SDS011;38606;52.986;6.980;2022-10-24T13:42:46;5.10;;;0.80;;
52708;SDS011;38606;52.986;6.980;2022-10-24T13:48:13;4.95;;;0.90;;
52708;SDS011;38606;52.986;6.980;2022-10-24T13:53:46;3.28;;;0.60;;
52708;SDS011;38606;52.986;6.980;2022-10-24T13:56:17;3.33;;;0.75;;
52708;SDS011;38606;52.986;6.980;2022-10-24T13:58:44;5.00;;;0.60;;
52708;SDS011;38606;52.986;6.980;2022-10-24T14:01:31;2.28;;;0.55;;
52708;SDS011;38606;52.986;6.980;2022-10-24T14:04:00;4.95;;;0.80;;
52708;SDS011;38606;52.986;6.980;2022-10-24T14:06:28;4.75;;;0.70;;
52708;SDS011;38606;52.986;6.980;2022-10-24T14:08:57;24.98;;;1.33;;
52708;SDS011;38606;52.986;6.980;2022-10-24T14:11:26;4.85;;;0.90;;
52708;SDS011;38606;52.986;6.980;2022-10-24T14:13:53;3.08;;;0.70;;
52708;SDS011;38606;52.986;6.980;2022-10-24T14:16:25;4.32;;;0.73;;
52708;SDS011;38606;52.986;6.980;2022-10-24T14:19:09;7.97;;;1.00;;
52708;SDS011;38606;52.986;6.980;2022-10-24T14:21:40;4.53;;;0.90;;
52708;SDS011;38606;52.986;6.980;2022-10-24T14:24:11;3.30;;;0.80;;
52708;SDS011;38606;52.986;6.980;2022-10-24T14:26:42;5.47;;;0.95;;
52708;SDS011;38606;52.986;6.980;2022-10-24T14:29:27;3.13;;;0.90;;
52708;SDS011;38606;52.986;6.980;2022-10-24T14:34:29;4.22;;;1.25;;
52708;SDS011;38606;52.986;6.980;2022-10-24T14:37:03;3.13;;;0.90;;
52708;SDS011;38606;52.986;6.980;2022-10-24T14:39:31;4.03;;;1.02;;
52708;SDS011;38606;52.986;6.980;2022-10-24T14:41:57;3.65;;;0.82;;
52708;SDS011;38606;52.986;6.980;2022-10-24T14:44:25;3.17;;;0.90;;
52708;SDS011;38606;52.986;6.980;2022-10-24T14:47:37;5.35;;;1.00;;
52708;SDS011;38606;52.986;6.980;2022-10-24T14:49:44;3.30;;;0.80;;
52708;SDS011;38606;52.986;6.980;2022-10-24T14:52:11;4.07;;;0.90;;
52708;SDS011;38606;52.986;6.980;2022-10-24T14:57:20;5.18;;;1.20;;
52708;SDS011;38606;52.986;6.980;2022-10-24T14:59:48;5.22;;;1.10;;
52708;SDS011;38606;52.986;6.980;2022-10-24T15:02:29;2.58;;;1.00;;
52708;SDS011;38606;52.986;6.980;2022-10-24T15:05:21;7.93;;;1.50;;
52708;SDS011;38606;52.986;6.980;2022-10-24T15:07:58;6.70;;;1.05;;
52708;SDS011;38606;52.986;6.980;2022-10-24T15:13:15;4.25;;;1.10;;
52708;SDS011;38606;52.986;6.980;2022-10-24T15:20:48;7.03;;;1.45;;
52708;SDS011;38606;52.986;6.980;2022-10-24T15:23:18;7.93;;;1.45;;
52708;SDS011;38606;52.986;6.980;2022-10-24T15:25:56;5.80;;;0.93;;
52708;SDS011;38606;52.986;6.980;2022-10-24T15:28:41;7.38;;;1.13;;
52708;SDS011;38606;52.986;6.980;2022-10-24T15:31:35;6.75;;;1.30;;
52708;SDS011;38606;52.986;6.980;2022-10-24T15:34:02;6.95;;;1.33;;
52708;SDS011;38606;52.986;6.980;2022-10-24T15:36:29;7.75;;;1.65;;
52708;SDS011;38606;52.986;6.980;2022-10-24T15:39:09;5.28;;;1.23;;
52708;SDS011;38606;52.986;6.980;2022-10-24T15:41:38;3.33;;;0.80;;
52708;SDS011;38606;52.986;6.980;2022-10-24T15:44:14;5.18;;;1.05;;
52708;SDS011;38606;52.986;6.980;2022-10-24T15:46:40;6.10;;;1.02;;
52708;SDS011;38606;52.986;6.980;2022-10-24T15:49:06;3.70;;;0.70;;
52708;SDS011;38606;52.986;6.980;2022-10-24T15:51:31;5.50;;;1.08;;
52708;SDS011;38606;52.986;6.980;2022-10-24T15:53:57;4.00;;;0.82;;
52708;SDS011;38606;52.986;6.980;2022-10-24T15:56:23;2.70;;;0.90;;
52708;SDS011;38606;52.986;6.980;2022-10-24T15:58:49;4.75;;;0.90;;
52708;SDS011;38606;52.986;6.980;2022-10-24T16:01:24;3.50;;;0.98;;
52708;SDS011;38606;52.986;6.980;2022-10-24T16:03:53;5.35;;;1.10;;
52708;SDS011;38606;52.986;6.980;2022-10-24T16:06:20;3.80;;;1.33;;
52708;SDS011;38606;52.986;6.980;2022-10-24T16:08:49;6.03;;;1.73;;
52708;SDS011;38606;52.986;6.980;2022-10-24T16:11:14;5.93;;;1.10;;
52708;SDS011;38606;52.986;6.980;2022-10-24T16:13:40;3.50;;;1.40;;
52708;SDS011;38606;52.986;6.980;2022-10-24T16:16:06;4.38;;;1.20;;
52708;SDS011;38606;52.986;6.980;2022-10-24T16:18:32;4.82;;;1.48;;
52708;SDS011;38606;52.986;6.980;2022-10-24T16:20:58;2.95;;;1.13;;
52708;SDS011;38606;52.986;6.980;2022-10-24T16:23:24;4.82;;;1.10;;
52708;SDS011;38606;52.986;6.980;2022-10-24T16:25:50;4.93;;;1.33;;
52708;SDS011;38606;52.986;6.980;2022-10-24T16:28:16;5.55;;;1.48;;
52708;SDS011;38606;52.986;6.980;2022-10-24T16:30:43;4.03;;;1.40;;
52708;SDS011;38606;52.986;6.980;2022-10-24T16:33:09;7.35;;;1.73;;
52708;SDS011;38606;52.986;6.980;2022-10-24T16:35:35;4.97;;;1.33;;
52708;SDS011;38606;52.986;6.980;2022-10-24T16:38:04;4.10;;;1.52;;
52708;SDS011;38606;52.986;6.980;2022-10-24T16:40:35;5.35;;;1.75;;
52708;SDS011;38606;52.986;6.980;2022-10-24T16:43:05;4.32;;;1.65;;
52708;SDS011;38606;52.986;6.980;2022-10-24T16:45:31;5.10;;;1.50;;
52708;SDS011;38606;52.986;6.980;2022-10-24T16:47:57;6.13;;;1.92;;
52708;SDS011;38606;52.986;6.980;2022-10-24T16:50:25;8.88;;;2.10;;
52708;SDS011;38606;52.986;6.980;2022-10-24T16:52:53;5.78;;;2.08;;
52708;SDS011;38606;52.986;6.980;2022-10-24T16:55:20;6.07;;;2.03;;
52708;SDS011;38606;52.986;6.980;2022-10-24T16:57:46;7.20;;;1.88;;
52708;SDS011;38606;52.986;6.980;2022-10-24T17:00:12;5.97;;;2.10;;
52708;SDS011;38606;52.986;6.980;2022-10-24T17:02:42;6.03;;;1.90;;
52708;SDS011;38606;52.986;6.980;2022-10-24T17:05:09;9.77;;;1.92;;
52708;SDS011;38606;52.986;6.980;2022-10-24T17:07:36;5.68;;;1.80;;
52708;SDS011;38606;52.986;6.980;2022-10-24T17:10:02;5.65;;;2.47;;
52708;SDS011;38606;52.986;6.980;2022-10-24T17:12:28;8.73;;;2.20;;
52708;SDS011;38606;52.986;6.980;2022-10-24T17:14:54;6.50;;;2.55;;
52708;SDS011;38606;52.986;6.980;2022-10-24T17:17:20;6.35;;;2.25;;
52708;SDS011;38606;52.986;6.980;2022-10-24T17:19:45;6.35;;;1.90;;
52708;SDS011;38606;52.986;6.980;2022-10-24T17:22:12;12.82;;;2.40;;
52708;SDS011;38606;52.986;6.980;2022-10-24T17:24:39;8.70;;;2.28;;
52708;SDS011;38606;52.986;6.980;2022-10-24T17:27:09;7.53;;;2.30;;
52708;SDS011;38606;52.986;6.980;2022-10-24T17:29:35;11.13;;;2.88;;
52708;SDS011;38606;52.986;6.980;2022-10-24T17:32:01;6.95;;;2.20;;